Time;durP1;ratioP1;P1;durP2;ratioP2;P2;SDS_P1;SDS_P2;PMS_P1;PMS_P2;Temp;Humidity;BMP_temperature;BMP_pressure;BME280_temperature;BME280_humidity;BME280_pressure;Samples;Min_cycle;Max_cycle;Signal;HPM_P1;HPM_P2
2021/09/28 00:00:38;;;;;;;;;;;16.10;99.90;;;;;;5015022;28;19964;-74
2021/09/28 00:03:05;;;;;;;;;;;16.30;99.90;;;;;;4997575;28;20047;-73
2021/09/28 00:05:37;;;;;;;;;;;16.40;99.90;;;;;;4997246;28;19929;-73
2021/09/28 00:08:08;;;;;;;;;;;16.40;99.90;;;;;;4998340;28;19932;-73
2021/09/28 00:10:36;;;;;;;;;;;16.50;99.90;;;;;;5013553;28;20479;-74
2021/09/28 00:13:07;;;;;;;;;;;16.50;99.90;;;;;;5015025;28;20015;-73
2021/09/28 00:15:39;;;;;;;;;;;16.50;99.90;;;;;;5012901;28;19957;-73
2021/09/28 00:18:11;;;;;;;;;;;16.50;99.90;;;;;;4997254;28;19972;-73
2021/09/28 00:20:42;;;;;;;;;;;16.40;99.90;;;;;;5013433;28;19932;-73
2021/09/28 00:23:14;;;;;;;;;;;16.40;99.90;;;;;;5014839;28;20028;-73
2021/09/28 00:25:49;;;;;;;;;;;16.40;99.90;;;;;;4996800;28;19932;-73
2021/09/28 00:28:20;;;;;;;;;;;16.30;99.90;;;;;;4996268;28;19929;-73
2021/09/28 00:30:47;;;;;;;;;;;16.20;99.90;;;;;;5014666;28;20016;-73
2021/09/28 00:33:14;;;;;;;;;;;16.20;99.90;;;;;;4997106;28;20008;-73
2021/09/28 00:35:40;;;;;;;;;;;16.20;99.90;;;;;;5013198;28;20514;-73
2021/09/28 00:38:12;;;;;;;;;;;16.10;99.90;;;;;;5014611;28;19926;-73
2021/09/28 00:40:44;;;;;;;;;;;16.10;99.90;;;;;;4996994;28;19925;-73
2021/09/28 00:43:15;;;;;;;;;;;16.10;99.90;;;;;;4996998;28;20281;-74
2021/09/28 00:45:42;;;;;;;;;;;16.00;99.90;;;;;;4996419;28;19925;-73
2021/09/28 00:48:09;;;;;;;;;;;15.90;99.90;;;;;;4996927;28;19964;-73
2021/09/28 00:50:41;;;;;;;;;;;15.90;99.90;;;;;;4996720;28;20028;-73
2021/09/28 00:53:07;;;;;;;;;;;15.90;99.90;;;;;;4996442;28;20294;-74
2021/09/28 00:55:34;;;;;;;;;;;15.80;99.90;;;;;;5013944;28;20031;-74
2021/09/28 00:58:08;;;;;;;;;;;15.80;99.90;;;;;;5014153;28;19932;-73
2021/09/28 01:00:40;;;;;;;;;;;15.80;99.90;;;;;;4995896;28;19947;-73
2021/09/28 01:03:12;;;;;;;;;;;15.90;99.90;;;;;;4995761;28;19929;-73
2021/09/28 01:05:38;;;;;;;;;;;15.90;99.90;;;;;;4995662;28;20020;-73
2021/09/28 01:08:10;;;;;;;;;;;15.90;99.90;;;;;;4996688;28;19925;-73
2021/09/28 01:10:37;;;;;;;;;;;16.00;99.90;;;;;;4995584;28;19951;-74
2021/09/28 01:13:08;;;;;;;;;;;16.00;99.90;;;;;;4995503;28;19932;-73
2021/09/28 01:15:46;;;;;;;;;;;16.10;99.90;;;;;;4995206;28;20021;-73
2021/09/28 01:18:18;;;;;;;;;;;16.10;99.90;;;;;;5013562;28;19925;-73
2021/09/28 01:20:50;;;;;;;;;;;16.10;99.90;;;;;;5011929;28;19930;-73
2021/09/28 01:23:21;;;;;;;;;;;16.10;99.90;;;;;;5011891;28;19936;-73
2021/09/28 01:25:53;;;;;;;;;;;16.10;99.90;;;;;;5011409;28;19925;-72
2021/09/28 01:28:20;;;;;;;;;;;16.10;99.90;;;;;;4995380;28;19925;-73
2021/09/28 01:30:46;;;;;;;;;;;16.10;99.90;;;;;;5011574;28;20024;-72
2021/09/28 01:33:15;;;;;;;;;;;16.00;99.90;;;;;;4995624;28;20021;-73
2021/09/28 01:35:47;;;;;;;;;;;16.00;99.90;;;;;;5011717;28;20141;-73
2021/09/28 01:38:13;;;;;;;;;;;16.00;99.90;;;;;;4995469;28;19980;-73
2021/09/28 01:40:45;;;;;;;;;;;16.00;99.90;;;;;;5013318;28;20029;-73
2021/09/28 01:43:13;;;;;;;;;;;16.00;99.90;;;;;;4995523;28;20051;-73
2021/09/28 01:45:44;;;;;;;;;;;16.10;99.90;;;;;;4994702;28;19932;-73
2021/09/28 01:48:11;;;;;;;;;;;16.00;99.90;;;;;;4995300;28;20380;-73
2021/09/28 01:50:38;;;;;;;;;;;16.00;99.90;;;;;;4994995;28;19932;-72
2021/09/28 01:53:10;;;;;;;;;;;16.00;99.90;;;;;;5012756;28;19925;-72
2021/09/28 01:55:41;;;;;;;;;;;16.00;99.90;;;;;;4994574;28;20024;-72
2021/09/28 01:58:08;;;;;;;;;;;15.90;99.90;;;;;;5011607;28;19968;-72
2021/09/28 02:00:41;;;;;;;;;;;15.90;99.90;;;;;;4980058;28;20411;-72
2021/09/28 02:03:08;;;;;;;;;;;15.90;99.90;;;;;;4995492;28;20020;-72
2021/09/28 02:05:35;;;;;;;;;;;15.80;99.90;;;;;;4995553;28;19980;-74
2021/09/28 02:08:06;;;;;;;;;;;15.80;99.90;;;;;;4995401;28;19932;-72
2021/09/28 02:10:38;;;;;;;;;;;15.60;99.90;;;;;;5012910;28;20430;-72
2021/09/28 02:13:10;;;;;;;;;;;15.50;99.90;;;;;;5011690;28;19983;-72
2021/09/28 02:15:36;;;;;;;;;;;15.30;99.90;;;;;;4995022;28;20028;-72
2021/09/28 02:18:03;;;;;;;;;;;15.30;99.90;;;;;;5011564;28;19961;-72
2021/09/28 02:20:30;;;;;;;;;;;15.20;99.90;;;;;;4995123;28;20385;-72
2021/09/28 02:23:02;;;;;;;;;;;15.10;99.90;;;;;;4995025;28;20315;-72
2021/09/28 02:25:34;;;;;;;;;;;15.00;99.90;;;;;;5012457;28;19926;-73
2021/09/28 02:28:00;;;;;;;;;;;15.00;99.90;;;;;;5012197;28;20020;-73
2021/09/28 02:30:27;;;;;;;;;;;15.00;99.90;;;;;;5011209;28;20384;-72
2021/09/28 02:32:58;;;;;;;;;;;14.90;99.90;;;;;;4995526;28;19932;-73
2021/09/28 02:35:25;;;;;;;;;;;15.00;99.90;;;;;;5010824;28;20020;-73
2021/09/28 02:37:58;;;;;;;;;;;15.00;99.90;;;;;;4994745;28;20411;-73
2021/09/28 02:40:26;;;;;;;;;;;15.00;99.90;;;;;;4994583;28;20037;-73
2021/09/28 02:42:53;;;;;;;;;;;15.00;99.90;;;;;;5011072;28;19932;-73
2021/09/28 02:45:25;;;;;;;;;;;15.00;99.90;;;;;;4994448;28;20332;-73
2021/09/28 02:47:51;;;;;;;;;;;15.00;99.90;;;;;;5011042;28;19926;-73
2021/09/28 02:50:23;;;;;;;;;;;14.90;99.90;;;;;;4994075;28;20032;-73
2021/09/28 02:52:54;;;;;;;;;;;14.90;99.90;;;;;;4994509;28;19964;-73
2021/09/28 02:55:26;;;;;;;;;;;14.90;99.90;;;;;;4995390;28;20040;-73
2021/09/28 02:57:53;;;;;;;;;;;14.90;99.90;;;;;;5011460;28;20351;-73
2021/09/28 03:00:19;;;;;;;;;;;14.90;99.90;;;;;;5012039;28;20435;-73
2021/09/28 03:02:51;;;;;;;;;;;14.90;99.90;;;;;;4994698;28;20035;-73
2021/09/28 03:05:23;;;;;;;;;;;14.90;99.90;;;;;;5010531;28;20016;-73
2021/09/28 03:07:49;;;;;;;;;;;14.90;99.90;;;;;;5010799;28;20016;-73
2021/09/28 03:10:21;;;;;;;;;;;14.80;99.90;;;;;;4995432;28;19925;-72
2021/09/28 03:12:53;;;;;;;;;;;14.80;99.90;;;;;;4994384;28;19925;-72
2021/09/28 03:15:24;;;;;;;;;;;14.80;99.90;;;;;;5010824;28;19977;-73
2021/09/28 03:17:56;;;;;;;;;;;14.80;99.90;;;;;;4994055;28;19925;-73
2021/09/28 03:20:28;;;;;;;;;;;14.80;99.90;;;;;;4994208;28;19932;-73
2021/09/28 03:22:55;;;;;;;;;;;14.80;99.90;;;;;;4994457;28;20012;-73
2021/09/28 03:25:21;;;;;;;;;;;14.70;99.90;;;;;;4994186;28;19929;-73
2021/09/28 03:27:53;;;;;;;;;;;14.70;99.90;;;;;;5011978;28;19932;-73
2021/09/28 03:30:25;;;;;;;;;;;14.60;99.90;;;;;;4994379;28;19932;-74
2021/09/28 03:32:51;;;;;;;;;;;14.50;99.90;;;;;;4974796;28;19952;-73
2021/09/28 03:35:23;;;;;;;;;;;14.50;99.90;;;;;;4979881;28;20440;-73
2021/09/28 03:37:54;;;;;;;;;;;14.40;99.90;;;;;;4971671;28;19925;-73
2021/09/28 03:40:29;;;;;;;;;;;14.30;99.90;;;;;;4984048;28;20323;-73
2021/09/28 03:43:00;;;;;;;;;;;14.30;99.90;;;;;;4974795;28;19930;-72
2021/09/28 03:45:33;;;;;;;;;;;14.20;99.90;;;;;;4991210;28;19993;-73
2021/09/28 03:48:05;;;;;;;;;;;14.20;99.90;;;;;;4975588;28;20016;-73
2021/09/28 03:50:37;;;;;;;;;;;14.20;99.90;;;;;;4990203;28;19929;-73
2021/09/28 03:53:09;;;;;;;;;;;14.10;99.90;;;;;;4977261;28;20021;-73
2021/09/28 03:55:36;;;;;;;;;;;14.10;99.90;;;;;;4988874;28;19926;-73
2021/09/28 03:58:08;;;;;;;;;;;14.10;99.90;;;;;;4970159;28;20549;-72
2021/09/28 04:00:37;;;;;;;;;;;14.00;99.90;;;;;;4973873;28;19969;-73
2021/09/28 04:03:04;;;;;;;;;;;14.00;99.90;;;;;;4974034;28;20013;-73
2021/09/28 04:05:37;;;;;;;;;;;14.00;99.90;;;;;;4976450;28;19972;-72
2021/09/28 04:08:08;;;;;;;;;;;14.00;99.90;;;;;;4977085;28;20028;-73
2021/09/28 04:10:40;;;;;;;;;;;13.90;99.90;;;;;;4983312;28;19925;-73
2021/09/28 04:13:14;;;;;;;;;;;13.80;99.90;;;;;;4988539;28;20012;-73
2021/09/28 04:15:46;;;;;;;;;;;13.70;99.90;;;;;;4980006;28;19926;-74
2021/09/28 04:18:18;;;;;;;;;;;13.60;99.90;;;;;;5012127;28;19925;-74
2021/09/28 04:20:49;;;;;;;;;;;13.60;99.90;;;;;;5013807;28;19926;-74
2021/09/28 04:23:21;;;;;;;;;;;13.50;99.90;;;;;;4995520;28;19932;-74
2021/09/28 04:25:53;;;;;;;;;;;13.40;99.90;;;;;;4968910;28;20307;-73
2021/09/28 04:28:19;;;;;;;;;;;13.30;99.90;;;;;;4976342;28;20423;-73
2021/09/28 04:30:46;;;;;;;;;;;13.30;99.90;;;;;;4990199;28;19926;-73
2021/09/28 04:33:17;;;;;;;;;;;13.20;99.90;;;;;;4993739;28;20024;-72
2021/09/28 04:35:49;;;;;;;;;;;13.10;99.90;;;;;;4986225;28;20415;-72
2021/09/28 04:38:21;;;;;;;;;;;13.00;99.90;;;;;;5014109;28;19925;-72
2021/09/28 04:40:52;;;;;;;;;;;13.00;99.90;;;;;;4983398;28;19929;-72
2021/09/28 04:43:24;;;;;;;;;;;12.90;99.90;;;;;;5013596;28;19925;-73
2021/09/28 04:45:56;;;;;;;;;;;12.90;99.90;;;;;;4993983;28;19932;-72
2021/09/28 04:48:27;;;;;;;;;;;12.80;99.90;;;;;;4970343;28;19925;-72
2021/09/28 04:50:54;;;;;;;;;;;12.80;99.90;;;;;;5011727;28;19933;-72
2021/09/28 04:53:21;;;;;;;;;;;12.80;99.90;;;;;;4996159;28;20008;-74
2021/09/28 04:55:48;;;;;;;;;;;12.70;99.90;;;;;;4983189;28;20033;-71
2021/09/28 04:58:15;;;;;;;;;;;12.70;99.90;;;;;;5000889;28;19929;-71
2021/09/28 05:00:41;;;;;;;;;;;12.60;99.90;;;;;;4974247;28;20024;-73
2021/09/28 05:03:13;;;;;;;;;;;12.60;99.90;;;;;;4974587;28;19930;-71
2021/09/28 05:05:40;;;;;;;;;;;12.50;99.90;;;;;;4976021;28;20388;-72
2021/09/28 05:08:11;;;;;;;;;;;12.50;99.90;;;;;;4993614;28;19932;-71
2021/09/28 05:10:43;;;;;;;;;;;12.50;99.90;;;;;;4960239;28;20024;-73
2021/09/28 05:13:10;;;;;;;;;;;12.50;99.90;;;;;;4977477;28;20024;-73
2021/09/28 05:15:36;;;;;;;;;;;12.60;99.90;;;;;;4974055;28;19930;-72
2021/09/28 05:18:03;;;;;;;;;;;12.60;99.90;;;;;;4983227;28;19936;-73
2021/09/28 05:20:35;;;;;;;;;;;12.50;99.90;;;;;;4967775;28;19925;-73
2021/09/28 05:23:07;;;;;;;;;;;12.50;99.90;;;;;;4992187;28;19932;-73
2021/09/28 05:25:39;;;;;;;;;;;12.50;99.90;;;;;;4975094;28;20401;-72
2021/09/28 05:28:06;;;;;;;;;;;12.50;99.90;;;;;;4975046;28;19965;-73
2021/09/28 05:30:32;;;;;;;;;;;12.50;99.90;;;;;;4992729;28;19965;-74
2021/09/28 05:32:59;;;;;;;;;;;12.50;99.90;;;;;;4975266;28;20452;-74
2021/09/28 05:35:26;;;;;;;;;;;12.50;99.90;;;;;;4974388;28;19932;-73
2021/09/28 05:37:53;;;;;;;;;;;12.40;99.90;;;;;;4975275;28;20012;-73
2021/09/28 05:40:19;;;;;;;;;;;12.40;99.90;;;;;;4992743;28;20036;-74
2021/09/28 05:42:51;;;;;;;;;;;12.30;99.90;;;;;;4975377;28;19926;-74
2021/09/28 05:45:23;;;;;;;;;;;12.30;99.90;;;;;;4975906;28;20018;-73
2021/09/28 05:47:54;;;;;;;;;;;12.30;99.90;;;;;;4992058;28;19932;-72
2021/09/28 05:50:21;;;;;;;;;;;12.20;99.90;;;;;;5004362;28;19954;-73
2021/09/28 05:52:55;;;;;;;;;;;12.20;99.90;;;;;;4995756;28;19929;-73
2021/09/28 05:55:22;;;;;;;;;;;12.20;99.90;;;;;;4994610;28;19940;-74
2021/09/28 05:57:54;;;;;;;;;;;12.20;99.90;;;;;;4995658;28;19926;-73
2021/09/28 06:00:26;;;;;;;;;;;12.20;99.90;;;;;;5012382;28;19932;-73
2021/09/28 06:02:57;;;;;;;;;;;12.20;99.90;;;;;;4994574;28;19931;-73
2021/09/28 06:05:24;;;;;;;;;;;12.20;99.90;;;;;;4994138;28;20012;-73
2021/09/28 06:07:56;;;;;;;;;;;12.20;99.90;;;;;;5012063;28;19932;-73
2021/09/28 06:10:24;;;;;;;;;;;12.20;99.90;;;;;;4982303;28;20299;-73
2021/09/28 06:12:50;;;;;;;;;;;12.30;99.90;;;;;;4994435;28;19925;-74
2021/09/28 06:15:17;;;;;;;;;;;12.30;99.90;;;;;;4978218;28;20363;-74
2021/09/28 06:17:49;;;;;;;;;;;12.30;99.90;;;;;;4987482;28;20021;-72
2021/09/28 06:20:20;;;;;;;;;;;12.30;99.90;;;;;;4976033;28;19925;-73
2021/09/28 06:22:52;;;;;;;;;;;12.40;99.90;;;;;;4975278;28;19926;-73
2021/09/28 06:25:24;;;;;;;;;;;12.30;99.90;;;;;;4974548;28;19936;-73
2021/09/28 06:27:50;;;;;;;;;;;12.30;99.90;;;;;;5004748;28;19980;-73
2021/09/28 06:30:17;;;;;;;;;;;12.30;99.90;;;;;;4978249;28;20012;-73
2021/09/28 06:32:49;;;;;;;;;;;12.30;99.90;;;;;;4994590;28;20170;-74
2021/09/28 06:35:20;;;;;;;;;;;12.30;99.90;;;;;;4995562;28;19925;-73
2021/09/28 06:37:47;;;;;;;;;;;12.30;99.90;;;;;;5010959;28;19961;-72
2021/09/28 06:40:19;;;;;;;;;;;12.40;99.90;;;;;;4977951;28;19926;-73
2021/09/28 06:42:50;;;;;;;;;;;12.40;99.90;;;;;;4975849;28;20361;-74
2021/09/28 06:45:23;;;;;;;;;;;12.40;99.90;;;;;;4974458;28;19964;-73
2021/09/28 06:47:50;;;;;;;;;;;12.50;99.90;;;;;;4988338;28;20012;-74
2021/09/28 06:50:16;;;;;;;;;;;12.50;99.90;;;;;;4993635;28;19930;-73
2021/09/28 06:52:44;;;;;;;;;;;12.50;99.90;;;;;;4994052;28;20016;-74
2021/09/28 06:55:16;;;;;;;;;;;12.60;99.90;;;;;;4993602;28;19969;-74
2021/09/28 06:57:47;;;;;;;;;;;12.60;99.90;;;;;;4984611;28;19926;-73
2021/09/28 07:00:14;;;;;;;;;;;12.60;99.90;;;;;;4992533;28;20020;-73
2021/09/28 07:02:46;;;;;;;;;;;12.60;99.90;;;;;;4958674;28;20304;-73
2021/09/28 07:05:14;;;;;;;;;;;12.60;99.90;;;;;;4974066;28;20024;-72
2021/09/28 07:07:46;;;;;;;;;;;12.70;99.90;;;;;;4991875;28;19933;-72
2021/09/28 07:10:17;;;;;;;;;;;12.80;99.90;;;;;;4974493;28;19969;-72
2021/09/28 07:12:44;;;;;;;;;;;12.80;99.90;;;;;;4974207;28;20028;-72
2021/09/28 07:15:17;;;;;;;;;;;12.80;99.90;;;;;;4991508;28;19973;-73
2021/09/28 07:17:48;;;;;;;;;;;12.80;99.90;;;;;;4992675;28;20439;-72
2021/09/28 07:20:15;;;;;;;;;;;12.80;99.90;;;;;;4990742;28;20578;-72
2021/09/28 07:22:47;;;;;;;;;;;12.90;99.90;;;;;;4974597;28;19930;-72
2021/09/28 07:25:19;;;;;;;;;;;12.90;99.90;;;;;;4973411;28;19948;-73
2021/09/28 07:27:55;;;;;;;;;;;12.90;99.90;;;;;;4991331;28;19926;-73
2021/09/28 07:30:21;;;;;;;;;;;13.00;99.90;;;;;;4992642;28;19925;-73
2021/09/28 07:32:48;;;;;;;;;;;13.00;99.90;;;;;;4993574;28;20018;-71
2021/09/28 07:35:20;;;;;;;;;;;13.10;99.90;;;;;;5010090;28;19926;-72
2021/09/28 07:37:52;;;;;;;;;;;13.20;99.90;;;;;;5013664;28;19961;-73
2021/09/28 07:40:24;;;;;;;;;;;13.20;99.90;;;;;;4963120;28;19944;-73
2021/09/28 07:42:56;;;;;;;;;;;13.20;99.90;;;;;;4962492;28;19968;-73
2021/09/28 07:45:23;;;;;;;;;;;13.30;99.90;;;;;;4977304;28;19925;-73
2021/09/28 07:47:50;;;;;;;;;;;13.30;99.90;;;;;;4994910;28;19989;-72
2021/09/28 07:50:22;;;;;;;;;;;13.30;99.90;;;;;;4978436;28;19925;-74
2021/09/28 07:52:53;;;;;;;;;;;13.40;99.90;;;;;;4995237;28;19985;-72
2021/09/28 07:55:26;;;;;;;;;;;13.50;99.90;;;;;;5002609;28;19947;-72
2021/09/28 07:57:53;;;;;;;;;;;13.50;99.90;;;;;;5000022;28;19926;-72
2021/09/28 08:00:25;;;;;;;;;;;13.50;99.90;;;;;;4985364;28;20048;-73
2021/09/28 08:02:57;;;;;;;;;;;13.50;99.90;;;;;;4991920;28;20295;-73
2021/09/28 08:05:28;;;;;;;;;;;13.50;99.90;;;;;;4996224;28;19925;-73
2021/09/28 08:08:00;;;;;;;;;;;13.40;99.90;;;;;;4983551;28;19930;-72
2021/09/28 08:10:27;;;;;;;;;;;13.40;99.90;;;;;;4977136;28;20009;-73
2021/09/28 08:13:03;;;;;;;;;;;13.30;99.90;;;;;;4981663;28;19937;-72
2021/09/28 08:15:35;;;;;;;;;;;13.30;99.90;;;;;;4975882;28;19929;-72
2021/09/28 08:18:03;;;;;;;;;;;13.30;99.90;;;;;;4976556;28;19996;-72
2021/09/28 08:20:35;;;;;;;;;;;13.40;99.90;;;;;;4995966;28;20008;-72
2021/09/28 08:23:02;;;;;;;;;;;13.50;99.90;;;;;;4976003;28;19926;-72
2021/09/28 08:25:37;;;;;;;;;;;13.60;99.90;;;;;;4983798;28;20605;-72
2021/09/28 08:31:00;;;;;;;;;;;13.90;99.90;;;;;;4993094;28;19965;-71
2021/09/28 08:33:32;;;;;;;;;;;14.10;99.90;;;;;;5004133;28;19973;-71
2021/09/28 08:36:05;;;;;;;;;;;14.10;99.90;;;;;;5003888;28;20360;-71
2021/09/28 08:38:37;;;;;;;;;;;14.10;99.90;;;;;;4981202;28;20013;-72
2021/09/28 08:41:11;;;;;;;;;;;14.00;99.90;;;;;;4976903;28;19934;-71
2021/09/28 08:43:43;;;;;;;;;;;14.00;99.90;;;;;;4977571;28;20021;-73
2021/09/28 08:46:16;;;;;;;;;;;14.00;99.90;;;;;;4988249;28;20364;-71
2021/09/28 08:48:48;;;;;;;;;;;14.00;99.90;;;;;;4976688;28;20363;-72
2021/09/28 08:51:15;;;;;;;;;;;14.10;99.90;;;;;;4992142;28;19953;-72
2021/09/28 08:53:42;;;;;;;;;;;14.10;99.90;;;;;;4994047;28;20024;-72
2021/09/28 08:56:14;;;;;;;;;;;14.30;99.90;;;;;;4976046;28;20347;-72
2021/09/28 08:58:53;;;;;;;;;;;14.50;99.90;;;;;;4984789;28;20024;-72
2021/09/28 09:01:27;;;;;;;;;;;14.70;99.90;;;;;;4995464;28;19957;-72
2021/09/28 09:04:18;;;;;;;;;;;15.00;99.90;;;;;;4975026;28;20460;-72
2021/09/28 09:06:45;;;;;;;;;;;15.00;99.90;;;;;;4967178;28;19930;-72
2021/09/28 09:09:17;;;;;;;;;;;15.00;99.90;;;;;;4977063;28;19957;-72
2021/09/28 09:11:50;;;;;;;;;;;15.10;99.90;;;;;;4990710;28;19933;-72
2021/09/28 09:14:24;;;;;;;;;;;15.10;99.90;;;;;;4969244;28;19953;-72
2021/09/28 09:16:56;;;;;;;;;;;15.20;99.90;;;;;;4983150;28;19926;-72
2021/09/28 09:19:29;;;;;;;;;;;15.20;99.90;;;;;;4960741;28;20025;-72
2021/09/28 09:22:02;;;;;;;;;;;15.30;99.90;;;;;;5010649;28;19976;-72
2021/09/28 09:24:45;;;;;;;;;;;15.40;99.90;;;;;;4956099;28;20274;-74
2021/09/28 09:27:14;;;;;;;;;;;15.60;99.90;;;;;;4970833;28;19957;-73
2021/09/28 09:30:06;;;;;;;;;;;15.80;99.90;;;;;;4960106;28;20537;-72
2021/09/28 09:32:49;;;;;;;;;;;16.00;99.90;;;;;;4972361;28;20392;-73
2021/09/28 09:35:26;;;;;;;;;;;16.10;99.90;;;;;;4988984;28;20001;-72
2021/09/28 09:38:05;;;;;;;;;;;16.00;99.90;;;;;;4975635;28;19964;-73
2021/09/28 09:40:45;;;;;;;;;;;15.90;99.90;;;;;;4979647;28;19935;-72
2021/09/28 09:43:18;;;;;;;;;;;15.70;99.90;;;;;;4984329;28;19926;-73
2021/09/28 09:45:50;;;;;;;;;;;15.50;99.90;;;;;;4983432;28;19948;-73
2021/09/28 09:48:22;;;;;;;;;;;15.40;99.90;;;;;;4975413;28;19926;-73
2021/09/28 09:50:54;;;;;;;;;;;15.30;99.90;;;;;;4975600;28;20024;-73
2021/09/28 09:53:26;;;;;;;;;;;15.40;99.90;;;;;;4975022;28;19932;-73
2021/09/28 09:55:58;;;;;;;;;;;15.50;99.90;;;;;;4959380;28;19933;-71
2021/09/28 09:58:31;;;;;;;;;;;15.40;99.90;;;;;;4975690;28;20009;-73
2021/09/28 10:00:58;;;;;;;;;;;15.50;99.90;;;;;;4982898;28;20579;-73
2021/09/28 10:03:25;;;;;;;;;;;15.60;99.90;;;;;;4971208;28;20020;-73
2021/09/28 10:05:51;;;;;;;;;;;15.80;99.90;;;;;;4974759;28;20024;-73
2021/09/28 10:08:18;;;;;;;;;;;15.90;99.90;;;;;;4963103;28;19926;-73
2021/09/28 10:10:57;;;;;;;;;;;16.10;99.90;;;;;;4976619;28;19932;-73
2021/09/28 10:13:47;;;;;;;;;;;16.20;99.90;;;;;;4974549;28;19961;-71
2021/09/28 10:16:40;;;;;;;;;;;16.40;99.90;;;;;;4984092;28;20020;-73
2021/09/28 10:19:28;;;;;;;;;;;16.60;99.90;;;;;;4967679;28;19925;-73
2021/09/28 10:22:00;;;;;;;;;;;16.80;99.90;;;;;;4992669;28;19933;-73
2021/09/28 10:24:26;;;;;;;;;;;17.00;99.90;;;;;;4974001;28;20017;-72
2021/09/28 10:26:58;;;;;;;;;;;16.80;99.90;;;;;;4985599;28;19925;-72
2021/09/28 10:29:43;;;;;;;;;;;16.70;99.90;;;;;;5012063;28;19925;-73
2021/09/28 10:32:41;;;;;;;;;;;16.50;99.90;;;;;;4994570;28;19936;-72
2021/09/28 10:35:14;;;;;;;;;;;16.40;99.90;;;;;;4994482;28;19932;-72
2021/09/28 10:37:41;;;;;;;;;;;16.30;99.90;;;;;;4994303;28;20016;-72
2021/09/28 10:40:12;;;;;;;;;;;16.30;99.90;;;;;;4987714;28;19925;-72
2021/09/28 10:42:59;;;;;;;;;;;16.20;99.90;;;;;;4984379;28;19930;-72
2021/09/28 10:45:32;;;;;;;;;;;16.30;99.90;;;;;;5000972;28;20292;-72
2021/09/28 10:48:07;;;;;;;;;;;16.30;99.90;;;;;;4998624;28;20012;-72
2021/09/28 10:50:41;;;;;;;;;;;16.40;99.90;;;;;;4985639;28;19932;-72
2021/09/28 10:53:20;;;;;;;;;;;16.70;99.90;;;;;;4958645;28;20258;-72
2021/09/28 10:56:02;;;;;;;;;;;16.70;99.90;;;;;;4973188;28;19926;-71
2021/09/28 10:58:54;;;;;;;;;;;16.80;99.90;;;;;;4978318;28;20453;-71
2021/09/28 11:01:27;;;;;;;;;;;17.00;99.90;;;;;;4998870;28;20392;-72
2021/09/28 11:03:58;;;;;;;;;;;17.10;99.90;;;;;;5011979;28;20012;-72
2021/09/28 11:06:43;;;;;;;;;;;17.30;99.90;;;;;;5010975;28;20024;-71
2021/09/28 11:09:11;;;;;;;;;;;17.60;99.90;;;;;;4994187;28;19953;-72
2021/09/28 11:11:39;;;;;;;;;;;17.70;99.90;;;;;;4994122;28;19940;-72
2021/09/28 11:14:07;;;;;;;;;;;17.80;99.90;;;;;;4964731;28;20019;-72
2021/09/28 11:16:41;;;;;;;;;;;17.90;99.90;;;;;;4978735;28;20357;-73
2021/09/28 11:19:13;;;;;;;;;;;18.10;99.90;;;;;;5001529;28;19957;-72
2021/09/28 11:21:45;;;;;;;;;;;18.20;99.90;;;;;;4997868;28;20013;-73
2021/09/28 11:24:19;;;;;;;;;;;18.30;99.90;;;;;;4987881;28;19989;-72
2021/09/28 11:26:57;;;;;;;;;;;18.40;99.90;;;;;;4996347;28;20629;-73
2021/09/28 11:29:29;;;;;;;;;;;18.20;99.90;;;;;;4982359;28;20021;-70
2021/09/28 11:32:03;;;;;;;;;;;18.10;99.90;;;;;;4977593;28;20019;-73
2021/09/28 11:34:36;;;;;;;;;;;17.90;99.90;;;;;;4984280;28;20024;-72
2021/09/28 11:37:04;;;;;;;;;;;17.80;99.90;;;;;;4978681;28;20460;-72
2021/09/28 11:39:38;;;;;;;;;;;17.80;99.90;;;;;;4978672;28;19930;-73
2021/09/28 11:42:10;;;;;;;;;;;17.90;99.90;;;;;;4981985;28;20020;-72
2021/09/28 11:44:45;;;;;;;;;;;18.00;99.90;;;;;;4986669;28;19926;-72
2021/09/28 11:47:21;;;;;;;;;;;18.10;99.90;;;;;;4979074;28;19926;-72
2021/09/28 11:49:55;;;;;;;;;;;18.10;99.90;;;;;;4966507;28;20307;-72
2021/09/28 11:52:27;;;;;;;;;;;18.10;99.90;;;;;;5001236;28;20013;-74
2021/09/28 11:54:54;;;;;;;;;;;18.00;99.90;;;;;;4978808;28;19925;-72
2021/09/28 11:57:26;;;;;;;;;;;18.00;99.90;;;;;;4995672;28;19973;-72
2021/09/28 11:59:53;;;;;;;;;;;18.10;99.90;;;;;;4978100;28;19926;-72
2021/09/28 12:02:21;;;;;;;;;;;18.40;99.90;;;;;;4978460;28;19932;-73
2021/09/28 12:10:19;;;;;;;;;;;18.80;99.90;;;;;;4977529;28;19930;-72
2021/09/28 12:12:52;;;;;;;;;;;18.80;99.90;;;;;;4978695;28;20439;-73
2021/09/28 12:15:24;;;;;;;;;;;18.90;99.90;;;;;;4977333;28;19926;-73
2021/09/28 12:17:58;;;;;;;;;;;19.00;99.90;;;;;;4977614;28;20028;-72
2021/09/28 12:20:27;;;;;;;;;;;19.10;99.90;;;;;;4977448;28;20021;-72
2021/09/28 12:23:02;;;;;;;;;;;19.20;99.90;;;;;;4977652;28;20341;-73
2021/09/28 12:25:36;;;;;;;;;;;19.20;99.90;;;;;;4972726;28;20024;-72
2021/09/28 12:28:09;;;;;;;;;;;19.20;99.90;;;;;;4993609;28;19968;-73
2021/09/28 12:30:50;;;;;;;;;;;19.20;99.90;;;;;;4984236;28;19925;-71
2021/09/28 12:33:22;;;;;;;;;;;19.20;99.90;;;;;;4996655;28;20012;-73
2021/09/28 12:35:53;;;;;;;;;;;19.30;99.90;;;;;;5013743;28;20024;-72
2021/09/28 12:38:20;;;;;;;;;;;19.30;99.90;;;;;;4995497;28;20012;-72
2021/09/28 12:40:52;;;;;;;;;;;19.30;99.90;;;;;;4993505;28;20289;-72
2021/09/28 12:43:26;;;;;;;;;;;19.40;99.90;;;;;;4976980;28;19980;-72
2021/09/28 12:45:58;;;;;;;;;;;19.60;99.90;;;;;;4976464;28;19961;-72
2021/09/28 12:48:32;;;;;;;;;;;19.70;99.90;;;;;;4977262;28;19988;-72
2021/09/28 12:51:05;;;;;;;;;;;19.60;99.90;;;;;;4977666;28;20025;-72
2021/09/28 12:53:37;;;;;;;;;;;19.40;99.90;;;;;;4986997;28;20518;-72
2021/09/28 12:56:09;;;;;;;;;;;19.30;99.90;;;;;;4988722;28;19932;-72
2021/09/28 12:58:36;;;;;;;;;;;19.20;99.90;;;;;;4976196;28;19929;-72
2021/09/28 13:01:03;;;;;;;;;;;19.10;99.90;;;;;;4993512;28;20028;-72
2021/09/28 13:03:33;;;;;;;;;;;19.00;99.90;;;;;;4977568;28;19958;-72
2021/09/28 13:06:09;;;;;;;;;;;18.90;99.90;;;;;;4977213;28;19925;-73
2021/09/28 13:08:41;;;;;;;;;;;18.80;99.90;;;;;;4976605;28;19925;-73
2021/09/28 13:11:13;;;;;;;;;;;18.80;99.90;;;;;;5006553;28;19925;-71
2021/09/28 13:13:46;;;;;;;;;;;18.90;99.90;;;;;;4981725;28;19948;-72
2021/09/28 13:16:13;;;;;;;;;;;19.00;99.90;;;;;;5010658;28;19925;-73
2021/09/28 13:18:39;;;;;;;;;;;19.00;99.90;;;;;;5009221;28;19964;-72
2021/09/28 13:21:06;;;;;;;;;;;19.10;99.90;;;;;;4977366;28;20028;-73
2021/09/28 13:23:38;;;;;;;;;;;19.20;99.90;;;;;;4993591;28;19926;-73
2021/09/28 13:26:09;;;;;;;;;;;19.20;99.90;;;;;;4994183;28;19932;-73
2021/09/28 13:28:41;;;;;;;;;;;19.30;99.90;;;;;;4976915;28;19925;-73
2021/09/28 13:31:08;;;;;;;;;;;19.30;99.90;;;;;;4956572;28;19972;-73
2021/09/28 13:33:36;;;;;;;;;;;19.30;99.90;;;;;;4964763;28;19961;-73
2021/09/28 13:36:03;;;;;;;;;;;19.30;99.90;;;;;;4982327;28;19925;-73
2021/09/28 13:38:35;;;;;;;;;;;19.40;99.90;;;;;;4977088;28;20330;-74
2021/09/28 13:41:07;;;;;;;;;;;19.40;99.90;;;;;;4976211;28;20024;-73
2021/09/28 13:43:34;;;;;;;;;;;19.40;99.90;;;;;;4976008;28;20008;-73
2021/09/28 13:46:06;;;;;;;;;;;19.50;99.90;;;;;;4975332;28;19929;-73
2021/09/28 13:48:39;;;;;;;;;;;19.50;99.90;;;;;;4990681;28;20016;-73
2021/09/28 13:51:06;;;;;;;;;;;19.50;99.90;;;;;;4978052;28;20384;-73
2021/09/28 13:53:33;;;;;;;;;;;19.50;99.90;;;;;;5012107;28;19967;-73
2021/09/28 13:56:00;;;;;;;;;;;19.40;99.90;;;;;;5009807;28;20024;-72
2021/09/28 13:58:26;;;;;;;;;;;19.40;99.90;;;;;;4972038;28;19952;-72
2021/09/28 14:00:59;;;;;;;;;;;19.40;99.90;;;;;;4975264;28;19933;-72
2021/09/28 14:03:30;;;;;;;;;;;19.40;99.90;;;;;;4993323;28;19939;-72
2021/09/28 14:05:57;;;;;;;;;;;19.40;99.90;;;;;;4966473;28;20348;-72
2021/09/28 14:08:28;;;;;;;;;;;19.40;99.90;;;;;;5001901;28;20289;-72
2021/09/28 14:11:00;;;;;;;;;;;19.40;99.90;;;;;;4976566;28;19929;-73
2021/09/28 14:13:27;;;;;;;;;;;19.40;99.90;;;;;;4975070;28;19961;-72
2021/09/28 14:15:58;;;;;;;;;;;19.30;99.90;;;;;;4974898;28;19926;-72
2021/09/28 14:18:32;;;;;;;;;;;19.20;99.90;;;;;;4996942;28;19930;-72
2021/09/28 14:21:04;;;;;;;;;;;19.10;99.90;;;;;;4988701;28;20016;-72
2021/09/28 14:23:31;;;;;;;;;;;19.00;99.90;;;;;;4985089;28;20359;-72
2021/09/28 14:26:03;;;;;;;;;;;19.00;99.90;;;;;;4984136;28;20304;-72
2021/09/28 14:28:35;;;;;;;;;;;19.00;99.90;;;;;;4994583;28;19964;-71
2021/09/28 14:31:05;;;;;;;;;;;19.10;99.90;;;;;;4995834;28;19997;-72
2021/09/28 14:33:38;;;;;;;;;;;19.20;99.90;;;;;;4981112;28;19992;-72
2021/09/28 14:36:09;;;;;;;;;;;19.30;99.90;;;;;;5011742;28;20474;-71
2021/09/28 14:38:36;;;;;;;;;;;19.30;99.90;;;;;;5012106;28;19957;-70
2021/09/28 14:41:03;;;;;;;;;;;19.20;99.90;;;;;;5011915;28;19976;-71
2021/09/28 14:43:31;;;;;;;;;;;19.20;99.90;;;;;;5011984;28;19959;-70
2021/09/28 14:45:58;;;;;;;;;;;19.10;99.90;;;;;;5011416;28;19926;-71